Time;durP1;ratioP1;P1;durP2;ratioP2;P2;SDS_P1;SDS_P2;PMS_P1;PMS_P2;Temp;Humidity;BMP_temperature;BMP_pressure;BME280_temperature;BME280_humidity;BME280_pressure;Samples;Min_cycle;Max_cycle;Signal;HPM_P1;HPM_P2
2023/07/03 00:00:40;;;;;;;9.73;7.87;;;;;;;19.42;100.00;96107.41;4953244;28;101975;-61
2023/07/03 00:03:07;;;;;;;12.20;8.67;;;;;;;19.42;100.00;96105.50;4952984;28;102399;-60
2023/07/03 00:05:35;;;;;;;14.27;8.97;;;;;;;19.44;100.00;96102.47;4952415;28;102611;-61
2023/07/03 00:08:01;;;;;;;11.63;9.07;;;;;;;19.40;100.00;96101.53;4951735;28;101976;-61
2023/07/03 00:10:29;;;;;;;13.87;9.17;;;;;;;19.44;100.00;96100.59;4951502;28;105436;-61
2023/07/03 00:12:56;;;;;;;11.40;9.40;;;;;;;19.40;100.00;96104.22;4952386;28;103151;-61
2023/07/03 00:15:22;;;;;;;12.33;9.50;;;;;;;19.40;100.00;96102.31;4952904;28;101862;-60
2023/07/03 00:17:50;;;;;;;11.00;9.27;;;;;;;19.44;100.00;96103.28;4954208;28;105578;-60
2023/07/03 00:20:18;;;;;;;11.77;9.40;;;;;;;19.42;100.00;96096.59;4951583;28;102043;-60
2023/07/03 00:22:46;;;;;;;12.37;9.13;;;;;;;19.40;100.00;96099.59;4951553;28;103808;-60
2023/07/03 00:25:13;;;;;;;13.30;9.80;;;;;;;19.48;100.00;96098.06;4952008;28;102950;-60
2023/07/03 00:27:40;;;;;;;11.63;9.60;;;;;;;19.48;100.00;96092.66;4951361;28;102008;-61
2023/07/03 00:30:08;;;;;;;11.63;9.53;;;;;;;19.45;100.00;96096.00;4951089;28;105178;-61
2023/07/03 00:32:35;;;;;;;12.00;9.93;;;;;;;19.40;100.00;96098.84;4950569;28;105165;-61
2023/07/03 00:35:03;;;;;;;11.07;9.33;;;;;;;19.44;100.00;96091.69;4951293;28;102007;-60
2023/07/03 00:37:31;;;;;;;10.73;9.13;;;;;;;19.48;100.00;96098.84;4952259;28;102980;-60
2023/07/03 00:39:58;;;;;;;11.70;8.77;;;;;;;19.61;100.00;96099.84;4953340;28;105547;-60
2023/07/03 00:42:26;;;;;;;10.33;8.30;;;;;;;19.70;100.00;96100.63;4951173;28;104963;-61
2023/07/03 00:44:53;;;;;;;12.07;9.23;;;;;;;19.62;100.00;96090.63;4950393;28;105704;-61
2023/07/03 00:47:22;;;;;;;14.50;9.90;;;;;;;19.49;100.00;96094.25;4950947;28;101923;-61
2023/07/03 00:49:50;;;;;;;11.37;9.77;;;;;;;19.42;100.00;96100.09;4950221;28;105319;-61
2023/07/03 00:52:19;;;;;;;14.53;10.20;;;;;;;19.41;100.00;96097.72;4950493;28;105205;-61
2023/07/03 00:54:46;;;;;;;10.90;9.60;;;;;;;19.45;100.00;96094.06;4949873;28;102024;-61
2023/07/03 00:57:15;;;;;;;12.93;9.40;;;;;;;19.47;100.00;96091.06;4950896;28;105605;-61
2023/07/03 00:59:41;;;;;;;11.30;9.20;;;;;;;19.44;100.00;96089.00;4950169;28;105377;-61
2023/07/03 01:02:12;;;;;;;11.83;9.70;;;;;;;19.52;100.00;96088.22;4954123;28;102011;-61
2023/07/03 01:04:45;;;;;;;12.57;9.27;;;;;;;19.53;100.00;96092.50;4950298;28;105664;-60
2023/07/03 01:07:16;;;;;;;10.67;9.57;;;;;;;19.52;100.00;96090.94;4950795;28;102114;-61
2023/07/03 01:09:49;;;;;;;13.27;9.27;;;;;;;19.50;100.00;96099.31;4950928;28;105638;-61
2023/07/03 01:12:18;;;;;;;10.40;8.57;;;;;;;19.63;100.00;96090.31;4950144;28;105403;-61
2023/07/03 01:14:46;;;;;;;10.23;9.17;;;;;;;19.56;100.00;96092.69;4950813;28;101891;-61
2023/07/03 01:17:15;;;;;;;10.70;8.63;;;;;;;19.69;100.00;96085.56;4952046;28;102336;-61
2023/07/03 01:19:46;;;;;;;10.73;8.93;;;;;;;19.61;100.00;96091.75;4951157;28;103187;-61
2023/07/03 01:22:21;;;;;;;13.73;10.07;;;;;;;19.56;100.00;96091.91;4950463;28;101907;-61
2023/07/03 01:24:55;;;;;;;10.07;8.97;;;;;;;19.62;100.00;96082.53;4954161;28;102459;-61
2023/07/03 01:27:25;;;;;;;10.20;8.90;;;;;;;19.57;100.00;96090.78;4950592;28;102004;-61
2023/07/03 01:29:54;;;;;;;12.77;9.60;;;;;;;19.45;100.00;96085.97;4950582;28;104887;-61
2023/07/03 01:32:23;;;;;;;9.60;8.60;;;;;;;19.44;100.00;96083.59;4949770;28;105659;-61
2023/07/03 01:34:54;;;;;;;9.87;8.23;;;;;;;19.46;100.00;96084.09;4950491;28;102178;-61
2023/07/03 01:37:25;;;;;;;11.93;9.10;;;;;;;19.52;100.00;96088.22;4949999;28;105229;-61
2023/07/03 01:39:55;;;;;;;12.23;9.17;;;;;;;19.50;100.00;96085.06;4949511;28;106056;-61
2023/07/03 01:42:24;;;;;;;11.80;9.67;;;;;;;19.50;100.00;96085.06;4950317;28;102367;-61
2023/07/03 01:44:51;;;;;;;12.23;9.20;;;;;;;19.48;100.00;96090.75;4950138;28;105398;-61
2023/07/03 01:47:20;;;;;;;13.70;8.77;;;;;;;19.38;100.00;96088.34;4952807;28;105877;-61
2023/07/03 01:49:47;;;;;;;14.77;9.83;;;;;;;19.21;100.00;96093.69;4950270;28;105826;-62
2023/07/03 01:52:19;;;;;;;11.23;9.30;;;;;;;19.26;100.00;96098.13;4950859;28;102544;-61
2023/07/03 01:54:55;;;;;;;10.90;8.70;;;;;;;19.36;100.00;96095.97;4950198;28;101918;-62
2023/07/03 01:57:36;;;;;;;9.50;7.23;;;;;;;19.33;100.00;96099.28;4951634;28;102391;-61
2023/07/03 02:00:07;;;;;;;9.80;7.93;;;;;;;19.52;100.00;96105.19;4949480;28;105361;-61
2023/07/03 02:02:43;;;;;;;11.03;7.57;;;;;;;19.56;100.00;96094.59;4948266;28;101728;-62
2023/07/03 02:05:15;;;;;;;10.70;8.77;;;;;;;19.60;100.00;96098.22;4949944;28;105644;-60
2023/07/03 02:07:44;;;;;;;12.90;8.20;;;;;;;19.54;100.00;96100.31;4949300;28;105487;-61
2023/07/03 02:10:13;;;;;;;10.60;8.83;;;;;;;19.28;100.00;96098.59;4954560;28;101730;-60
2023/07/03 02:12:45;;;;;;;9.43;8.10;;;;;;;19.18;100.00;96098.88;4950517;28;102837;-61
2023/07/03 02:15:15;;;;;;;11.03;8.77;;;;;;;19.04;100.00;96103.56;4949775;28;101980;-60
2023/07/03 02:17:42;;;;;;;10.00;8.00;;;;;;;19.18;100.00;96110.44;4949763;28;105183;-60
2023/07/03 02:20:13;;;;;;;12.67;7.93;;;;;;;19.18;100.00;96106.97;4948883;28;105558;-60
2023/07/03 02:22:40;;;;;;;10.97;8.07;;;;;;;19.20;100.00;96102.06;4949697;28;102106;-61
2023/07/03 02:25:10;;;;;;;10.13;8.30;;;;;;;19.15;100.00;96099.50;4949503;28;105721;-60
2023/07/03 02:27:37;;;;;;;11.80;7.63;;;;;;;19.30;100.00;96104.50;4948921;28;105807;-60
2023/07/03 02:30:07;;;;;;;9.90;8.03;;;;;;;18.96;100.00;96090.84;4952827;28;101895;-60
2023/07/03 02:32:35;;;;;;;12.07;9.67;;;;;;;18.95;100.00;96097.31;4950506;28;102759;-59
2023/07/03 02:35:03;;;;;;;12.23;8.90;;;;;;;18.93;100.00;96097.66;4950680;28;101884;-58
2023/07/03 02:37:30;;;;;;;10.17;7.70;;;;;;;19.09;100.00;96104.25;4950782;28;102379;-58
2023/07/03 02:39:57;;;;;;;13.87;9.70;;;;;;;19.12;100.00;96106.28;4948553;28;105442;-58
2023/07/03 02:42:24;;;;;;;10.63;8.90;;;;;;;19.04;100.00;96100.88;4933078;28;102159;-58
2023/07/03 02:44:53;;;;;;;12.37;9.47;;;;;;;19.12;100.00;96108.22;4949292;28;105338;-58
2023/07/03 02:47:21;;;;;;;10.27;8.07;;;;;;;19.17;100.00;96108.03;4948754;28;105063;-58
2023/07/03 02:49:49;;;;;;;10.80;7.93;;;;;;;19.22;100.00;96110.63;4949074;28;101868;-58
2023/07/03 02:52:17;;;;;;;7.43;6.07;;;;;;;19.35;100.00;96112.44;4951969;28;104582;-58
2023/07/03 02:54:44;;;;;;;10.60;8.67;;;;;;;19.18;100.00;96106.97;4949282;28;102388;-58
2023/07/03 02:57:11;;;;;;;9.00;7.47;;;;;;;19.35;100.00;96107.06;4949229;28;105577;-58
2023/07/03 02:59:38;;;;;;;9.37;7.60;;;;;;;19.33;100.00;96106.56;4949891;28;101843;-58
2023/07/03 03:02:06;;;;;;;9.20;7.07;;;;;;;19.38;100.00;96107.22;4949008;28;101900;-58
2023/07/03 03:04:35;;;;;;;12.63;10.13;;;;;;;18.78;100.00;96108.00;4948889;28;105374;-58
2023/07/03 03:07:02;;;;;;;12.13;9.93;;;;;;;18.77;100.00;96109.13;4947787;28;105836;-57
2023/07/03 03:09:29;;;;;;;13.23;9.60;;;;;;;18.90;100.00;96110.94;4948887;28;102129;-58
2023/07/03 03:11:57;;;;;;;12.33;10.07;;;;;;;18.92;100.00;96109.50;4948812;28;105400;-58
2023/07/03 03:14:24;;;;;;;9.83;8.83;;;;;;;18.85;100.00;96103.00;4951525;28;102506;-58
2023/07/03 03:16:51;;;;;;;12.27;9.77;;;;;;;18.96;100.00;96117.81;4948923;28;104870;-58
2023/07/03 03:19:18;;;;;;;9.50;8.00;;;;;;;19.01;100.00;96115.75;4948029;28;106871;-58
2023/07/03 03:21:49;;;;;;;9.37;7.20;;;;;;;19.18;100.00;96120.44;4948850;28;101874;-59
2023/07/03 03:24:16;;;;;;;12.97;9.90;;;;;;;18.64;100.00;96115.41;4948923;28;105149;-59
2023/07/03 03:26:43;;;;;;;12.87;10.23;;;;;;;18.63;100.00;96113.81;4949547;28;103318;-59
2023/07/03 03:29:10;;;;;;;14.93;8.63;;;;;;;18.74;100.00;96120.53;4947561;28;101886;-59
2023/07/03 03:31:40;;;;;;;13.53;10.50;;;;;;;18.48;100.00;96117.66;4949920;28;102641;-59
2023/07/03 03:34:08;;;;;;;12.40;10.80;;;;;;;18.46;100.00;96113.66;4947045;28;105539;-60
2023/07/03 03:36:38;;;;;;;13.43;10.73;;;;;;;18.40;100.00;96115.69;4950761;28;101865;-59
2023/07/03 03:39:07;;;;;;;12.50;10.37;;;;;;;18.40;100.00;96114.91;4946712;28;105435;-59
2023/07/03 03:41:34;;;;;;;15.93;8.73;;;;;;;18.68;100.00;96111.78;4947528;28;101927;-61
2023/07/03 03:44:01;;;;;;;9.27;8.00;;;;;;;18.80;100.00;96119.28;4948532;28;104317;-61
2023/07/03 03:46:28;;;;;;;13.77;8.57;;;;;;;18.92;100.00;96111.44;4947970;28;105589;-60
2023/07/03 03:48:55;;;;;;;9.03;8.13;;;;;;;18.84;100.00;96114.88;4948405;28;102128;-61
2023/07/03 03:51:23;;;;;;;12.47;8.90;;;;;;;18.85;100.00;96111.88;4948392;28;105622;-61
2023/07/03 03:53:50;;;;;;;11.60;8.83;;;;;;;18.93;100.00;96107.63;4947696;28;105250;-61
2023/07/03 03:56:19;;;;;;;11.70;8.57;;;;;;;19.00;100.00;96114.16;4948482;28;101946;-61
2023/07/03 03:58:46;;;;;;;11.57;8.23;;;;;;;19.14;100.00;96119.47;4951210;28;105058;-62
2023/07/03 04:01:13;;;;;;;10.70;8.33;;;;;;;19.27;100.00;96116.69;4949689;28;101867;-61
2023/07/03 04:03:40;;;;;;;14.07;8.90;;;;;;;19.30;100.00;96123.38;4948214;28;105178;-61
2023/07/03 04:06:09;;;;;;;12.50;8.80;;;;;;;19.22;100.00;96121.44;4948903;28;102623;-61
2023/07/03 04:08:36;;;;;;;12.40;9.33;;;;;;;19.24;100.00;96124.63;4948364;28;102323;-61
2023/07/03 04:11:03;;;;;;;11.50;8.60;;;;;;;19.28;100.00;96120.19;4949575;28;102646;-61
2023/07/03 04:13:31;;;;;;;10.47;8.70;;;;;;;19.21;100.00;96120.66;4949052;28;102778;-61
2023/07/03 04:16:01;;;;;;;12.40;8.20;;;;;;;19.28;100.00;96133.66;4948122;28;102013;-61
2023/07/03 04:18:29;;;;;;;14.27;9.93;;;;;;;19.25;100.00;96124.31;4948025;28;105115;-61
2023/07/03 04:20:57;;;;;;;11.40;9.27;;;;;;;19.14;100.00;96130.25;4951995;28;102172;-62
2023/07/03 04:23:24;;;;;;;11.40;9.33;;;;;;;18.97;100.00;96128.25;4948227;28;105656;-61
2023/07/03 04:25:51;;;;;;;13.23;9.40;;;;;;;19.10;100.00;96131.97;4950377;28;102623;-60
2023/07/03 04:28:21;;;;;;;12.03;9.40;;;;;;;19.18;100.00;96132.00;4952830;28;101891;-60
2023/07/03 04:30:50;;;;;;;11.57;10.37;;;;;;;19.22;100.00;96138.41;4952350;28;102394;-60
2023/07/03 04:33:17;;;;;;;11.53;8.57;;;;;;;19.45;100.00;96129.13;4951157;28;102564;-60
2023/07/03 04:35:45;;;;;;;11.30;9.07;;;;;;;19.63;100.00;96127.28;4952641;28;101867;-60
2023/07/03 04:38:12;;;;;;;14.50;10.57;;;;;;;19.49;100.00;96126.59;4952203;28;102576;-61
2023/07/03 04:40:39;;;;;;;12.13;10.00;;;;;;;19.54;100.00;96129.97;4954746;28;102717;-60
2023/07/03 04:43:08;;;;;;;10.27;8.63;;;;;;;19.79;100.00;96131.16;4950071;28;105179;-60
2023/07/03 04:45:40;;;;;;;9.77;7.63;;;;;;;19.97;100.00;96132.75;4951720;28;102938;-63
2023/07/03 04:48:09;;;;;;;14.13;9.83;;;;;;;20.01;100.00;96128.31;4951036;28;101852;-62
2023/07/03 04:50:36;;;;;;;13.13;10.13;;;;;;;19.99;100.00;96133.25;4951858;28;103805;-62
2023/07/03 04:53:03;;;;;;;13.37;10.23;;;;;;;19.52;100.00;96128.69;4950142;28;105319;-61
2023/07/03 04:55:30;;;;;;;11.60;9.90;;;;;;;19.38;100.00;96131.50;4950832;28;102334;-61
2023/07/03 04:57:59;;;;;;;11.30;9.93;;;;;;;19.45;100.00;96136.44;4952916;28;102441;-61
2023/07/03 05:00:27;;;;;;;13.23;10.10;;;;;;;19.25;100.00;96137.00;4967283;28;104643;-61
2023/07/03 05:03:02;;;;;;;12.17;10.30;;;;;;;19.17;100.00;96140.41;4954163;28;101811;-61
2023/07/03 05:05:30;;;;;;;12.77;10.23;;;;;;;19.20;100.00;96146.00;4950095;28;105368;-61
2023/07/03 05:07:57;;;;;;;14.10;10.20;;;;;;;19.18;100.00;96142.00;4950497;28;101956;-61
2023/07/03 05:10:31;;;;;;;13.57;10.50;;;;;;;19.11;100.00;96142.44;4950565;28;104940;-61
2023/07/03 05:12:58;;;;;;;12.87;10.30;;;;;;;19.17;100.00;96140.41;4949995;28;105989;-62
2023/07/03 05:15:25;;;;;;;13.43;10.43;;;;;;;19.04;100.00;96146.69;4950405;28;101974;-62
2023/07/03 05:17:54;;;;;;;14.03;10.80;;;;;;;18.77;100.00;96154.91;4950386;28;105057;-62
2023/07/03 05:20:23;;;;;;;11.17;10.07;;;;;;;19.02;100.00;96157.00;4949859;28;105499;-62
2023/07/03 05:22:51;;;;;;;12.60;10.90;;;;;;;19.15;100.00;96148.81;4950164;28;101967;-62
2023/07/03 05:25:19;;;;;;;10.90;9.03;;;;;;;19.48;100.00;96158.19;4952987;28;105349;-62
2023/07/03 05:27:47;;;;;;;11.37;10.10;;;;;;;19.57;100.00;96160.91;4951200;28;102027;-62
2023/07/03 05:30:14;;;;;;;13.10;10.50;;;;;;;19.59;100.00;96166.78;4949970;28;103918;-62
2023/07/03 05:32:41;;;;;;;13.30;10.70;;;;;;;19.44;100.00;96169.91;4949607;28;105726;-62
2023/07/03 05:35:09;;;;;;;13.97;9.87;;;;;;;19.55;100.00;96166.63;4949899;28;102052;-62
2023/07/03 05:37:36;;;;;;;11.57;9.60;;;;;;;19.71;100.00;96167.78;4951781;28;102395;-62
2023/07/03 05:40:09;;;;;;;16.03;13.03;;;;;;;19.83;100.00;96170.66;4950015;28;105856;-62
2023/07/03 05:42:37;;;;;;;16.67;13.07;;;;;;;19.76;100.00;96172.22;4951586;28;101661;-62
2023/07/03 05:45:05;;;;;;;22.13;17.20;;;;;;;19.61;100.00;96178.84;4951202;28;102353;-62
2023/07/03 05:47:32;;;;;;;17.90;14.43;;;;;;;19.71;100.00;96178.59;4952802;28;105312;-62
2023/07/03 05:49:59;;;;;;;16.60;14.67;;;;;;;20.05;100.00;96188.69;4951282;28;102887;-62
2023/07/03 05:52:26;;;;;;;18.43;14.47;;;;;;;20.14;100.00;96181.41;4950644;28;102636;-62
2023/07/03 05:54:53;;;;;;;17.37;13.53;;;;;;;20.20;100.00;96180.13;4951130;28;101880;-62
2023/07/03 05:57:22;;;;;;;16.83;14.33;;;;;;;20.57;100.00;96184.94;4950995;28;101970;-62
2023/07/03 05:59:50;;;;;;;17.43;13.10;;;;;;;20.55;100.00;96187.19;4949226;28;105228;-62
2023/07/03 06:02:18;;;;;;;14.10;11.70;;;;;;;20.49;100.00;96185.75;4949656;28;102141;-62
2023/07/03 06:04:45;;;;;;;17.13;12.23;;;;;;;20.67;100.00;96185.44;4949513;28;105361;-62
2023/07/03 06:07:12;;;;;;;16.40;12.00;;;;;;;20.91;100.00;96188.44;4950511;28;102686;-62
2023/07/03 06:09:39;;;;;;;14.90;11.63;;;;;;;20.83;100.00;96180.31;4954266;28;101900;-62
2023/07/03 06:12:07;;;;;;;17.93;12.10;;;;;;;21.02;100.00;96186.19;4948800;28;105701;-62
2023/07/03 06:14:35;;;;;;;14.97;12.17;;;;;;;21.25;100.00;96201.13;4949392;28;102020;-62
2023/07/03 06:17:03;;;;;;;12.87;11.00;;;;;;;21.35;100.00;96189.94;4949325;28;105279;-62
2023/07/03 06:19:30;;;;;;;17.30;11.47;;;;;;;21.36;100.00;96186.13;4948924;28;105423;-64
2023/07/03 06:21:57;;;;;;;13.93;10.83;;;;;;;21.27;100.00;96198.88;4937135;28;102088;-63
2023/07/03 06:24:25;;;;;;;16.63;11.40;;;;;;;21.19;100.00;96189.66;4929873;28;105226;-63
2023/07/03 06:26:52;;;;;;;14.03;10.43;;;;;;;21.31;100.00;96192.50;4936691;28;103112;-64
2023/07/03 06:29:20;;;;;;;15.93;10.97;;;;;;;21.17;100.00;96196.50;4952685;28;101978;-64
2023/07/03 06:31:52;;;;;;;16.23;11.00;;;;;;;21.33;100.00;96203.00;4948585;28;103776;-63
2023/07/03 06:34:19;;;;;;;16.03;11.03;;;;;;;21.09;100.00;96200.03;4949208;28;101929;-63
2023/07/03 06:36:45;;;;;;;16.23;10.93;;;;;;;21.15;100.00;96202.22;4949048;28;105248;-64
2023/07/03 06:39:12;;;;;;;17.83;11.50;;;;;;;21.37;100.00;96198.53;4948380;28;105382;-64
2023/07/03 06:41:39;;;;;;;13.83;10.60;;;;;;;21.43;100.00;96206.16;4949048;28;101957;-64
2023/07/03 06:44:14;;;;;;;16.13;12.10;;;;;;;21.35;100.00;96206.16;4948973;28;103645;-63
2023/07/03 06:46:41;;;;;;;16.20;11.67;;;;;;;21.22;100.00;96199.06;4948538;28;103963;-63
2023/07/03 06:49:10;;;;;;;14.27;10.73;;;;;;;21.40;100.00;96200.59;4947976;28;101940;-64
2023/07/03 06:51:37;;;;;;;16.07;12.00;;;;;;;21.20;100.00;96201.28;4951510;28;105213;-64
2023/07/03 06:54:04;;;;;;;14.67;11.67;;;;;;;21.25;100.00;96199.19;4949017;28;101801;-63
2023/07/03 06:56:35;;;;;;;14.47;10.67;;;;;;;21.57;100.00;96192.44;4950048;28;102865;-63
2023/07/03 06:59:02;;;;;;;13.87;10.53;;;;;;;21.60;100.00;96192.56;4948026;28;104335;-63
2023/07/03 07:01:29;;;;;;;17.50;11.27;;;;;;;21.46;100.00;96191.16;4932490;28;101923;-62
2023/07/03 07:03:56;;;;;;;15.80;11.23;;;;;;;21.16;100.00;96195.72;4950249;28;103003;-63
2023/07/03 07:06:27;;;;;;;14.57;10.53;;;;;;;21.42;100.00;96190.25;4948273;28;105073;-63
2023/07/03 07:08:54;;;;;;;16.27;11.40;;;;;;;21.40;100.00;96203.28;4948617;28;101864;-64
2023/07/03 07:11:23;;;;;;;13.50;10.53;;;;;;;21.57;100.00;96203.25;4948767;28;105134;-63
2023/07/03 07:13:52;;;;;;;16.40;11.47;;;;;;;21.71;100.00;96198.44;4951373;28;105180;-63
2023/07/03 07:16:21;;;;;;;15.87;11.20;;;;;;;22.00;100.00;96193.84;4948815;28;104776;-63
2023/07/03 07:18:51;;;;;;;15.13;10.87;;;;;;;22.20;100.00;96200.41;4949440;28;102782;-62
2023/07/03 07:21:18;;;;;;;18.53;11.90;;;;;;;21.88;100.00;96201.06;4948721;28;102031;-61
2023/07/03 07:23:51;;;;;;;15.73;11.67;;;;;;;21.98;100.00;96206.13;4949821;28;102456;-63
2023/07/03 07:26:19;;;;;;;15.03;10.80;;;;;;;21.96;100.00;96195.59;4949489;28;103074;-62
2023/07/03 07:28:46;;;;;;;13.97;10.63;;;;;;;21.90;100.00;96206.97;4949930;28;101983;-64
2023/07/03 07:31:19;;;;;;;18.23;11.70;;;;;;;22.13;100.00;96205.56;4948365;28;104504;-60
2023/07/03 07:33:46;;;;;;;18.23;12.03;;;;;;;22.28;100.00;96194.16;4947870;28;105385;-63
2023/07/03 07:36:13;;;;;;;14.33;11.30;;;;;;;21.75;100.00;96196.69;4951517;28;103226;-62
2023/07/03 07:38:40;;;;;;;14.37;11.27;;;;;;;22.19;100.00;96199.59;4947531;28;104025;-63
2023/07/03 07:41:09;;;;;;;16.57;11.40;;;;;;;22.35;100.00;96197.13;4948357;28;101962;-62
2023/07/03 07:43:35;;;;;;;15.17;11.23;;;;;;;22.28;100.00;96202.28;4948452;28;105344;-62
2023/07/03 07:46:02;;;;;;;14.57;11.37;;;;;;;22.11;100.00;96195.06;4949038;28;102876;-63
2023/07/03 07:48:30;;;;;;;15.60;10.60;;;;;;;22.36;100.00;96193.31;4948320;28;102098;-63
2023/07/03 07:50:57;;;;;;;17.37;11.00;;;;;;;22.55;100.00;96191.75;4949830;28;101970;-63
2023/07/03 07:53:26;;;;;;;20.03;10.77;;;;;;;22.66;100.00;96186.75;4946498;28;103341;-62
2023/07/03 07:55:58;;;;;;;14.50;10.67;;;;;;;22.56;100.00;96189.84;4948173;28;102012;-62
2023/07/03 07:58:27;;;;;;;17.30;10.53;;;;;;;22.40;100.00;96189.59;4951125;28;105280;-62
2023/07/03 08:00:56;;;;;;;13.33;10.13;;;;;;;22.34;100.00;96184.72;4951102;28;101993;-62
2023/07/03 08:03:23;;;;;;;13.90;10.50;;;;;;;22.96;100.00;96185.50;4952822;28;102749;-62
2023/07/03 08:05:50;;;;;;;13.03;9.77;;;;;;;22.96;100.00;96180.09;4950951;28;104069;-63
2023/07/03 08:08:17;;;;;;;13.63;9.87;;;;;;;23.20;100.00;96180.97;4953623;28;101884;-63
2023/07/03 08:10:52;;;;;;;11.90;9.17;;;;;;;22.96;100.00;96182.78;4952515;28;105310;-63
2023/07/03 08:13:19;;;;;;;13.60;9.63;;;;;;;22.54;100.00;96184.75;4951661;28;105500;-63
2023/07/03 08:15:48;;;;;;;12.03;9.33;;;;;;;23.01;100.00;96180.69;4951857;28;102124;-63
2023/07/03 08:18:16;;;;;;;12.33;9.20;;;;;;;22.60;100.00;96188.84;4951767;28;105061;-63
2023/07/03 08:20:43;;;;;;;11.10;8.27;;;;;;;22.52;100.00;96183.50;4954679;28;105316;-63
2023/07/03 08:23:10;;;;;;;10.33;8.07;;;;;;;21.95;100.00;96185.91;4951991;28;105377;-63
2023/07/03 08:25:37;;;;;;;11.07;7.90;;;;;;;22.40;100.00;96189.59;4951333;28;105265;-62
2023/07/03 08:28:05;;;;;;;9.43;7.77;;;;;;;22.32;100.00;96182.34;4951987;28;102017;-63
2023/07/03 08:30:32;;;;;;;9.43;7.33;;;;;;;22.07;100.00;96190.63;4952031;28;105232;-62
2023/07/03 08:33:00;;;;;;;11.60;7.67;;;;;;;22.43;100.00;96193.56;4951240;28;105748;-62
2023/07/03 08:35:27;;;;;;;11.00;7.77;;;;;;;22.01;100.00;96189.22;4952131;28;101932;-67
2023/07/03 08:37:54;;;;;;;12.73;8.17;;;;;;;22.20;100.00;96189.56;4951583;28;104856;-63
2023/07/03 08:40:23;;;;;;;10.80;7.30;;;;;;;22.34;100.00;96195.56;4954551;28;105398;-62
2023/07/03 08:42:53;;;;;;;10.13;7.13;;;;;;;22.17;100.00;96192.97;4951953;28;105381;-63
2023/07/03 08:45:23;;;;;;;10.73;7.50;;;;;;;22.20;100.00;96192.28;4951243;28;105831;-63
2023/07/03 08:47:53;;;;;;;12.57;7.70;;;;;;;22.29;99.37;96191.09;4953017;28;101825;-63
2023/07/03 08:50:24;;;;;;;11.43;7.27;;;;;;;22.22;100.00;96190.84;4951647;28;106004;-62
2023/07/03 08:52:55;;;;;;;10.13;7.10;;;;;;;22.03;99.01;96189.69;4952657;28;103170;-64
2023/07/03 08:55:26;;;;;;;9.17;7.00;;;;;;;21.80;100.00;96199.22;4951902;28;101880;-62
2023/07/03 08:57:53;;;;;;;10.10;6.90;;;;;;;21.65;100.00;96199.72;4953176;28;102411;-61
2023/07/03 09:00:21;;;;;;;9.43;6.33;;;;;;;21.52;100.00;96203.44;4950896;28;105467;-63
2023/07/03 09:02:55;;;;;;;11.57;6.33;;;;;;;21.46;98.85;96207.41;4955013;28;102026;-63
2023/07/03 09:05:35;;;;;;;8.40;6.30;;;;;;;21.31;100.00;96207.94;4952624;28;102630;-62
2023/07/03 09:08:06;;;;;;;8.17;6.43;;;;;;;21.35;99.73;96200.75;4951510;28;102104;-63
2023/07/03 09:10:37;;;;;;;7.37;5.87;;;;;;;21.65;98.41;96200.53;4951013;28;105489;-63
2023/07/03 09:13:08;;;;;;;8.67;6.27;;;;;;;21.60;100.00;96208.00;4950480;28;105282;-63
2023/07/03 09:15:38;;;;;;;8.83;6.40;;;;;;;21.68;96.66;96202.59;4952910;28;101726;-63
2023/07/03 09:18:17;;;;;;;11.83;7.07;;;;;;;21.56;99.24;96202.44;4952921;28;102360;-63
2023/07/03 09:20:46;;;;;;;8.83;6.70;;;;;;;21.65;100.00;96205.13;4950561;28;105706;-63
2023/07/03 09:23:19;;;;;;;13.30;6.57;;;;;;;21.71;100.00;96203.84;4951282;28;102116;-63
2023/07/03 09:25:50;;;;;;;11.07;6.97;;;;;;;21.65;100.00;96210.53;4954129;28;105502;-63
2023/07/03 09:28:17;;;;;;;7.33;5.70;;;;;;;21.76;100.00;96218.03;4951381;28;101772;-63
2023/07/03 09:30:45;;;;;;;9.87;6.57;;;;;;;21.82;99.24;96215.91;4952508;28;102591;-63
2023/07/03 09:33:12;;;;;;;10.40;6.70;;;;;;;21.77;99.36;96214.19;4951444;28;102748;-63
2023/07/03 09:35:41;;;;;;;9.23;6.70;;;;;;;21.55;100.00;96210.88;4950979;28;101960;-64
2023/07/03 09:38:15;;;;;;;11.33;6.40;;;;;;;21.84;100.00;96209.06;4951926;28;102788;-63
2023/07/03 09:40:44;;;;;;;8.83;6.03;;;;;;;21.89;98.18;96208.06;4950533;28;105758;-62
2023/07/03 09:43:14;;;;;;;9.80;6.20;;;;;;;21.93;100.00;96203.59;4951013;28;101895;-63
2023/07/03 09:45:42;;;;;;;7.93;6.77;;;;;;;21.78;91.17;96209.53;4950615;28;105277;-62
2023/07/03 09:48:18;;;;;;;10.00;6.77;;;;;;;21.70;94.78;96213.88;4953660;28;105428;-62
2023/07/03 09:50:45;;;;;;;8.20;6.20;;;;;;;21.52;97.22;96214.25;4952468;28;102917;-63
2023/07/03 09:53:19;;;;;;;9.90;6.10;;;;;;;21.54;100.00;96209.31;4951628;28;102692;-63
2023/07/03 09:55:51;;;;;;;8.67;6.07;;;;;;;21.75;100.00;96207.50;4950505;28;102090;-63
2023/07/03 09:58:18;;;;;;;8.97;6.07;;;;;;;21.99;100.00;96208.50;4941431;28;103781;-63
2023/07/03 10:00:47;;;;;;;7.83;5.70;;;;;;;21.90;97.79;96212.38;4940586;28;104020;-63
2023/07/03 10:03:23;;;;;;;8.30;6.27;;;;;;;21.65;100.00;96213.25;4950458;28;101961;-63
2023/07/03 10:05:50;;;;;;;9.63;5.90;;;;;;;21.61;100.00;96209.59;4950610;28;105572;-63
2023/07/03 10:08:21;;;;;;;8.67;5.77;;;;;;;21.52;100.00;96206.13;4949809;28;105248;-63
2023/07/03 10:10:49;;;;;;;11.70;6.53;;;;;;;21.36;98.76;96213.19;4954107;28;102111;-63
2023/07/03 10:13:24;;;;;;;10.43;6.20;;;;;;;21.79;96.96;96208.47;4949824;28;105326;-62
2023/07/03 10:15:54;;;;;;;7.67;5.90;;;;;;;21.51;100.00;96207.22;4950372;28;102138;-63
2023/07/03 10:18:26;;;;;;;7.97;6.20;;;;;;;21.30;99.00;96211.78;4950441;28;105598;-62
2023/07/03 10:20:54;;;;;;;9.17;6.00;;;;;;;21.57;99.76;96211.38;4949773;28;105044;-63
2023/07/03 10:23:25;;;;;;;8.20;5.97;;;;;;;21.40;98.58;96219.53;4950546;28;101807;-63
2023/07/03 10:25:56;;;;;;;8.40;6.10;;;;;;;21.55;100.00;96219.81;4950031;28;103224;-63
2023/07/03 10:28:28;;;;;;;9.53;6.03;;;;;;;21.77;99.64;96214.19;4949560;28;105992;-63
2023/07/03 10:31:05;;;;;;;9.60;5.80;;;;;;;21.78;100.00;96215.78;4951877;28;101680;-63
2023/07/03 10:33:36;;;;;;;8.43;6.03;;;;;;;21.61;100.00;96215.00;4953042;28;103815;-63
2023/07/03 10:36:08;;;;;;;7.77;5.60;;;;;;;21.83;95.96;96217.50;4950168;28;101825;-62
2023/07/03 10:38:42;;;;;;;9.30;6.23;;;;;;;21.93;100.00;96211.72;4931489;28;102387;-63
2023/07/03 10:41:15;;;;;;;8.93;5.90;;;;;;;22.06;95.77;96208.00;4931661;28;103133;-62
2023/07/03 10:43:49;;;;;;;10.27;5.87;;;;;;;22.15;95.97;96203.31;4932119;28;101706;-62
2023/07/03 10:46:24;;;;;;;9.97;6.10;;;;;;;22.42;99.66;96210.94;4932019;28;102478;-63
2023/07/03 10:48:54;;;;;;;7.60;5.63;;;;;;;22.76;92.00;96197.97;4931278;28;103388;-62
2023/07/03 10:51:31;;;;;;;6.87;5.33;;;;;;;22.77;84.95;96201.47;4931854;28;101850;-62
2023/07/03 10:54:08;;;;;;;8.93;6.10;;;;;;;22.86;88.55;96204.91;4934100;28;101811;-62
2023/07/03 10:56:41;;;;;;;8.27;5.63;;;;;;;22.78;88.71;96200.34;4930506;28;101896;-62
2023/07/03 10:59:16;;;;;;;9.77;6.10;;;;;;;22.69;88.56;96208.56;4940000;28;105765;-63
2023/07/03 11:01:52;;;;;;;8.07;5.50;;;;;;;22.40;93.16;96203.13;4949266;28;105946;-62
2023/07/03 11:04:22;;;;;;;9.80;5.87;;;;;;;22.79;90.92;96197.31;4949842;28;101850;-63
2023/07/03 11:07:03;;;;;;;9.97;5.97;;;;;;;22.78;85.24;96200.34;4951175;28;102400;-63
2023/07/03 11:09:41;;;;;;;9.47;5.77;;;;;;;23.05;87.54;96197.06;4950798;28;103227;-63
2023/07/03 11:12:17;;;;;;;8.80;5.50;;;;;;;22.79;89.23;96196.50;4951219;28;101785;-63
2023/07/03 11:14:52;;;;;;;9.43;6.17;;;;;;;22.43;86.07;96196.28;4951115;28;102432;-63
2023/07/03 11:17:29;;;;;;;8.97;6.50;;;;;;;22.88;86.89;96192.59;4952599;28;105311;-63